createdAt,value
2022-08-25T00:01:44.673Z,22.04
2022-08-25T00:04:15.316Z,21.64
2022-08-25T00:06:43.602Z,22.18
2022-08-25T00:09:13.448Z,22.35
2022-08-25T00:11:42.827Z,21.52
2022-08-25T00:14:14.242Z,21.37
2022-08-25T00:16:41.340Z,21.68
2022-08-25T00:19:12.874Z,21.38
2022-08-25T00:21:39.676Z,21.37
2022-08-25T00:24:06.846Z,21.65
2022-08-25T00:26:33.499Z,21.66
2022-08-25T00:29:01.745Z,21.80
2022-08-25T00:31:38.879Z,21.99
2022-08-25T00:34:13.100Z,21.79
2022-08-25T00:36:40.316Z,21.39
2022-08-25T00:39:10.121Z,21.42
2022-08-25T00:41:38.824Z,21.34
2022-08-25T00:44:08.524Z,21.15
2022-08-25T00:46:43.697Z,21.33
2022-08-25T00:49:25.338Z,21.81
2022-08-25T00:52:03.971Z,22.00
2022-08-25T00:54:37.641Z,21.38
2022-08-25T00:57:07.358Z,20.90
2022-08-25T00:59:35.003Z,21.28
2022-08-25T01:02:03.720Z,21.01
2022-08-25T01:04:30.704Z,21.23
2022-08-25T01:07:00.534Z,21.03
2022-08-25T01:09:31.424Z,21.35
2022-08-25T01:11:59.984Z,20.79
2022-08-25T01:14:30.153Z,20.96
2022-08-25T01:16:57.591Z,20.69
2022-08-25T01:19:26.920Z,20.88
2022-08-25T01:21:54.068Z,21.10
2022-08-25T01:24:30.957Z,20.54
2022-08-25T01:26:58.272Z,20.27
2022-08-25T01:29:25.651Z,20.32
2022-08-25T01:31:59.970Z,20.56
2022-08-25T01:34:30.140Z,20.73
2022-08-25T01:36:58.956Z,20.73
2022-08-25T01:39:28.935Z,20.53
2022-08-25T01:42:09.671Z,20.47
2022-08-25T01:44:40.040Z,20.35
2022-08-25T01:47:07.926Z,20.80
2022-08-25T01:49:34.766Z,20.60
2022-08-25T01:52:33.005Z,20.80
2022-08-25T01:54:59.642Z,20.22
2022-08-25T01:57:29.065Z,20.47
2022-08-25T01:59:55.710Z,20.40
2022-08-25T02:02:22.441Z,20.42
2022-08-25T02:04:49.091Z,20.58
2022-08-25T02:07:17.726Z,20.33
2022-08-25T02:09:44.389Z,20.85
2022-08-25T02:12:14.345Z,19.85
2022-08-25T02:14:41.068Z,19.99
2022-08-25T02:17:09.026Z,20.09
2022-08-25T02:19:35.787Z,20.19
2022-08-25T02:22:02.628Z,20.40
2022-08-25T02:24:29.322Z,20.61
2022-08-25T02:26:56.067Z,20.45
2022-08-25T02:29:22.794Z,20.58
2022-08-25T02:31:49.783Z,20.45
2022-08-25T02:34:16.538Z,20.31
2022-08-25T02:36:43.231Z,20.25
2022-08-25T02:39:10.995Z,20.33
2022-08-25T02:41:37.916Z,20.27
2022-08-25T02:44:05.619Z,20.05
2022-08-25T02:46:32.316Z,20.33
2022-08-25T02:48:59.510Z,20.11
2022-08-25T02:51:27.588Z,20.27
2022-08-25T02:53:54.229Z,20.54
2022-08-25T02:56:20.964Z,19.46
2022-08-25T02:58:47.796Z,19.42
2022-08-25T03:01:16.235Z,19.20
2022-08-25T03:03:46.057Z,19.16
2022-08-25T03:06:16.240Z,19.65
2022-08-25T03:08:43.661Z,19.40
2022-08-25T03:11:10.854Z,19.97
2022-08-25T03:13:38.139Z,19.36
2022-08-25T03:16:11.246Z,19.00
2022-08-25T03:18:41.012Z,18.94
2022-08-25T03:21:07.958Z,18.91
2022-08-25T03:23:34.973Z,18.80
2022-08-25T03:26:02.006Z,19.61
2022-08-25T03:28:30.062Z,19.09
2022-08-25T03:30:57.433Z,19.75
2022-08-25T03:33:24.049Z,19.05
2022-08-25T03:35:50.676Z,19.65
2022-08-25T03:38:17.292Z,19.68
2022-08-25T03:40:44.103Z,19.66
2022-08-25T03:43:10.759Z,20.23
2022-08-25T03:45:45.033Z,19.95
2022-08-25T03:48:12.414Z,19.62
2022-08-25T03:50:51.535Z,19.16
2022-08-25T03:53:21.992Z,18.89
2022-08-25T03:55:48.660Z,19.14
2022-08-25T03:58:15.701Z,19.59
2022-08-25T04:00:42.447Z,19.86
2022-08-25T04:03:09.418Z,19.54
2022-08-25T04:05:36.098Z,19.53
2022-08-25T04:08:03.371Z,19.98
2022-08-25T04:10:30.962Z,19.97
2022-08-25T04:12:58.251Z,20.13
2022-08-25T04:15:24.923Z,19.93
2022-08-25T04:17:55.695Z,19.97
2022-08-25T04:20:22.361Z,20.12
2022-08-25T04:22:49.194Z,19.94
2022-08-25T04:25:15.845Z,19.70
2022-08-25T04:27:42.479Z,19.86
2022-08-25T04:30:09.836Z,20.13
2022-08-25T04:32:40.184Z,19.16
2022-08-25T04:35:07.358Z,18.99
2022-08-25T04:37:34.525Z,18.76
2022-08-25T04:40:01.867Z,18.90
2022-08-25T04:42:28.556Z,18.69
2022-08-25T04:44:55.212Z,19.47
2022-08-25T04:47:22.523Z,18.85
2022-08-25T04:49:49.399Z,18.55
2022-08-25T04:52:16.222Z,18.70
2022-08-25T04:54:43.577Z,18.81
2022-08-25T04:57:10.647Z,19.15
2022-08-25T04:59:37.349Z,19.13
2022-08-25T05:02:05.455Z,19.29
2022-08-25T05:04:35.211Z,19.01
2022-08-25T05:07:03.075Z,18.44
2022-08-25T05:09:32.436Z,18.57
2022-08-25T05:12:01.250Z,18.90
2022-08-25T05:14:28.880Z,18.90
2022-08-25T05:16:56.139Z,18.69
2022-08-25T05:19:23.107Z,18.95
2022-08-25T05:21:49.832Z,19.00
2022-08-25T05:24:16.511Z,19.19
2022-08-25T05:26:45.096Z,19.27
2022-08-25T05:29:11.790Z,19.82
2022-08-25T05:31:43.133Z,19.97
2022-08-25T05:34:10.725Z,20.13
2022-08-25T05:36:37.711Z,20.09
2022-08-25T05:39:04.705Z,19.35
2022-08-25T05:41:31.585Z,19.20
2022-08-25T05:43:58.449Z,19.45
2022-08-25T05:46:27.711Z,20.23
2022-08-25T05:48:58.325Z,20.47
2022-08-25T05:51:24.941Z,20.67
2022-08-25T05:53:51.626Z,20.29
2022-08-25T05:56:19.589Z,20.11
2022-08-25T05:58:46.753Z,20.30
2022-08-25T06:01:26.689Z,20.55
2022-08-25T06:03:53.607Z,20.92
2022-08-25T06:06:22.713Z,21.32
2022-08-25T06:08:49.446Z,21.43
2022-08-25T06:11:16.160Z,21.48
2022-08-25T06:13:43.648Z,21.57
2022-08-25T06:16:10.386Z,21.76
2022-08-25T06:18:37.138Z,21.80
2022-08-25T06:21:14.688Z,21.76
2022-08-25T06:23:41.614Z,21.55
2022-08-25T06:26:18.141Z,21.87
2022-08-25T06:28:47.459Z,21.99
2022-08-25T06:31:14.905Z,22.15
2022-08-25T06:33:41.623Z,22.22
2022-08-25T06:36:08.442Z,22.17
2022-08-25T06:38:35.440Z,22.10
2022-08-25T06:41:06.591Z,22.03
2022-08-25T06:43:34.786Z,22.19
2022-08-25T06:46:16.623Z,22.33
2022-08-25T06:48:43.943Z,22.51
2022-08-25T06:51:14.375Z,22.52
2022-08-25T06:53:42.402Z,22.62
2022-08-25T06:56:09.669Z,22.83
2022-08-25T06:58:37.571Z,22.89
2022-08-25T07:01:12.347Z,22.97
2022-08-25T07:03:43.212Z,23.56
2022-08-25T07:06:10.359Z,24.51
2022-08-25T07:08:37.020Z,25.58
2022-08-25T07:11:07.880Z,26.73
2022-08-25T07:13:44.427Z,27.33
2022-08-25T07:16:11.446Z,28.29
2022-08-25T07:18:39.013Z,28.94
2022-08-25T07:21:05.967Z,29.20
2022-08-25T07:23:36.562Z,29.59
2022-08-25T07:26:36.282Z,29.77
2022-08-25T07:29:12.720Z,29.04
2022-08-25T07:31:40.224Z,28.58
2022-08-25T07:34:07.944Z,28.22
2022-08-25T07:36:36.029Z,27.87
2022-08-25T07:39:04.121Z,27.48
2022-08-25T07:41:31.199Z,28.66
2022-08-25T07:43:59.791Z,29.21
2022-08-25T07:46:26.756Z,29.86
2022-08-25T07:48:53.606Z,29.11
2022-08-25T07:51:20.338Z,29.58
2022-08-25T07:53:47.020Z,30.13
2022-08-25T07:56:16.285Z,30.44
2022-08-25T07:58:43.605Z,30.39
2022-08-25T08:01:17.160Z,30.05
2022-08-25T08:03:50.815Z,29.29
2022-08-25T08:06:21.790Z,29.59
2022-08-25T08:08:50.635Z,30.02
2022-08-25T08:11:23.936Z,30.34
2022-08-25T08:13:50.917Z,30.31
2022-08-25T08:16:19.920Z,30.63
2022-08-25T08:18:47.671Z,30.60
2022-08-25T08:21:19.191Z,30.54
2022-08-25T08:23:47.268Z,29.73
2022-08-25T08:26:14.342Z,30.41
2022-08-25T08:28:41.076Z,30.41
2022-08-25T08:31:10.498Z,30.43
2022-08-25T08:33:40.882Z,29.78
2022-08-25T08:36:10.944Z,29.28
2022-08-25T08:38:40.513Z,29.93
2022-08-25T08:41:25.442Z,30.07
2022-08-25T08:44:07.852Z,30.30
2022-08-25T08:46:50.627Z,30.00
2022-08-25T08:49:29.467Z,30.69
2022-08-25T08:52:02.759Z,30.37
2022-08-25T08:54:36.276Z,30.36
2022-08-25T08:57:13.979Z,29.87
2022-08-25T08:59:55.172Z,30.30
2022-08-25T09:02:56.248Z,30.18
2022-08-25T09:05:29.454Z,30.23
2022-08-25T09:08:10.569Z,29.84
2022-08-25T09:11:05.374Z,29.34
2022-08-25T09:13:55.296Z,29.53
2022-08-25T09:16:41.962Z,29.59
2022-08-25T09:19:37.396Z,29.80
2022-08-25T09:22:35.724Z,29.57
2022-08-25T09:25:48.790Z,29.25
2022-08-25T09:28:40.709Z,28.49
2022-08-25T09:31:29.573Z,28.12
2022-08-25T09:34:00.336Z,28.08
2022-08-25T09:36:27.496Z,27.70
2022-08-25T09:38:54.396Z,27.73
2022-08-25T09:41:46.671Z,27.26
2022-08-25T09:44:26.610Z,27.30
2022-08-25T09:47:15.203Z,27.27
2022-08-25T09:49:43.800Z,27.29
2022-08-25T09:52:30.068Z,27.26
2022-08-25T09:55:13.126Z,26.83
2022-08-25T09:57:42.935Z,26.22
2022-08-25T10:00:27.075Z,26.81
2022-08-25T10:03:14.185Z,26.27
2022-08-25T10:05:57.321Z,26.69
2022-08-25T10:08:32.665Z,26.68
2022-08-25T10:11:03.688Z,25.89
2022-08-25T10:13:42.179Z,26.12
2022-08-25T10:16:19.979Z,26.13
2022-08-25T10:19:06.010Z,26.49
2022-08-25T10:21:34.175Z,26.41
2022-08-25T10:24:02.317Z,26.53
2022-08-25T10:27:01.436Z,26.64
2022-08-25T10:30:12.964Z,26.42
2022-08-25T10:32:45.555Z,26.15
2022-08-25T10:35:18.209Z,26.27
2022-08-25T10:38:06.513Z,26.76
2022-08-25T10:40:33.434Z,26.65
2022-08-25T10:43:19.255Z,26.77
2022-08-25T10:46:04.947Z,26.68
2022-08-25T10:48:44.730Z,26.58
2022-08-25T10:51:35.826Z,26.71
2022-08-25T10:54:25.831Z,27.25
2022-08-25T10:57:13.603Z,27.14
2022-08-25T10:59:45.839Z,27.00
2022-08-25T11:02:16.346Z,27.23
2022-08-25T11:05:03.496Z,27.03
2022-08-25T11:07:54.609Z,27.18
2022-08-25T11:10:33.230Z,27.05
2022-08-25T11:13:07.702Z,27.12
2022-08-25T11:16:13.684Z,27.78
2022-08-25T11:19:22.092Z,27.80
2022-08-25T11:22:13.050Z,27.79
2022-08-25T11:24:56.816Z,27.85
2022-08-25T11:27:37.011Z,27.83
2022-08-25T11:30:12.202Z,28.04
2022-08-25T11:32:43.799Z,27.33
2022-08-25T11:35:14.518Z,27.80
2022-08-25T11:38:14.336Z,27.79
2022-08-25T11:41:29.060Z,27.66
2022-08-25T11:44:27.728Z,27.64
2022-08-25T11:47:00.691Z,27.92
2022-08-25T11:49:51.699Z,28.07
2022-08-25T11:52:34.766Z,27.81
2022-08-25T11:55:27.886Z,28.03
2022-08-25T11:58:33.602Z,27.79
2022-08-25T12:01:04.303Z,28.22
2022-08-25T12:03:36.971Z,28.29
2022-08-25T12:06:28.096Z,28.11
2022-08-25T12:09:00.499Z,28.10
2022-08-25T12:11:39.362Z,28.28
2022-08-25T12:14:28.590Z,28.16
2022-08-25T12:16:55.500Z,28.38
2022-08-25T12:19:25.142Z,28.33
2022-08-25T12:21:57.825Z,28.61
2022-08-25T12:24:47.585Z,28.50
2022-08-25T12:27:46.234Z,28.12
2022-08-25T12:30:21.096Z,28.62
2022-08-25T12:32:50.967Z,28.50
2022-08-25T12:35:23.668Z,28.18
2022-08-25T12:38:01.868Z,28.35
2022-08-25T12:40:52.979Z,28.54
2022-08-25T12:43:19.674Z,28.82
2022-08-25T12:45:53.121Z,28.59
2022-08-25T12:48:29.096Z,28.59
2022-08-25T12:51:15.006Z,28.70
2022-08-25T12:53:45.210Z,28.92
2022-08-25T12:56:26.534Z,28.89
2022-08-25T12:59:01.449Z,28.71
2022-08-25T13:01:42.315Z,29.17
2022-08-25T13:04:27.524Z,29.41
2022-08-25T13:07:41.513Z,29.47
2022-08-25T13:10:29.701Z,29.47
2022-08-25T13:13:17.747Z,29.27
2022-08-25T13:15:48.692Z,29.17
2022-08-25T13:18:34.022Z,29.19
2022-08-25T13:21:23.109Z,29.20
2022-08-25T13:23:53.848Z,29.02
2022-08-25T13:26:27.780Z,28.99
2022-08-25T13:29:12.982Z,28.89
2022-08-25T13:32:00.938Z,28.67
2022-08-25T13:34:42.874Z,29.09
2022-08-25T13:37:23.002Z,29.33
2022-08-25T13:39:58.676Z,29.40
2022-08-25T13:42:28.886Z,29.18
2022-08-25T13:44:56.237Z,29.31
2022-08-25T13:47:45.091Z,29.52
2022-08-25T13:50:31.283Z,29.75
2022-08-25T13:53:23.254Z,29.95
2022-08-25T13:56:00.980Z,30.04
2022-08-25T13:58:39.201Z,29.96
2022-08-25T14:01:31.447Z,30.23
2022-08-25T14:04:25.362Z,30.16
2022-08-25T14:07:19.280Z,29.82
2022-08-25T14:09:57.506Z,29.99
2022-08-25T14:12:33.275Z,29.98
2022-08-25T14:15:32.173Z,29.95
2022-08-25T14:18:09.774Z,30.08
2022-08-25T14:20:47.803Z,29.83
2022-08-25T14:23:19.411Z,30.09
2022-08-25T14:25:48.684Z,29.98
2022-08-25T14:28:20.802Z,29.93
2022-08-25T14:30:51.947Z,30.52
2022-08-25T14:33:26.596Z,30.37
2022-08-25T14:35:58.429Z,30.04
2022-08-25T14:38:25.677Z,30.17
2022-08-25T14:40:53.168Z,30.07
2022-08-25T14:43:24.041Z,30.25
2022-08-25T14:46:02.553Z,30.38
2022-08-25T14:48:40.506Z,30.48
2022-08-25T14:51:14.076Z,30.27
2022-08-25T14:53:42.735Z,29.99
2022-08-25T14:56:10.411Z,30.41
2022-08-25T14:58:48.356Z,30.36
2022-08-25T15:01:28.459Z,30.27
2022-08-25T15:04:02.288Z,30.12
2022-08-25T15:06:29.948Z,30.34
2022-08-25T15:08:56.833Z,30.80
2022-08-25T15:11:24.322Z,30.59
2022-08-25T15:13:53.124Z,30.45
2022-08-25T15:16:48.083Z,30.25
2022-08-25T15:19:18.828Z,30.53
2022-08-25T15:21:47.947Z,30.64
2022-08-25T15:24:17.339Z,30.79
2022-08-25T15:29:22.764Z,30.84
2022-08-25T15:31:50.653Z,30.96
2022-08-25T15:34:17.360Z,30.71
2022-08-25T15:36:45.630Z,30.97
2022-08-25T15:39:12.285Z,30.76
2022-08-25T15:41:40.133Z,30.91
2022-08-25T15:44:09.654Z,30.55
2022-08-25T15:46:38.502Z,30.63
2022-08-25T15:49:07.868Z,30.87
2022-08-25T15:51:35.049Z,30.90
2022-08-25T15:54:01.714Z,31.02
2022-08-25T15:56:28.438Z,31.06
2022-08-25T15:58:55.399Z,30.93
2022-08-25T16:01:25.188Z,30.87
2022-08-25T16:03:52.503Z,31.03
2022-08-25T16:06:19.426Z,31.34
2022-08-25T16:08:46.445Z,31.26
2022-08-25T16:11:20.323Z,31.22
2022-08-25T16:13:49.423Z,31.66
2022-08-25T16:16:18.569Z,31.74
2022-08-25T16:18:46.108Z,31.54
2022-08-25T16:21:17.546Z,31.32
2022-08-25T16:23:44.224Z,31.61
2022-08-25T16:26:13.034Z,31.35
2022-08-25T16:28:43.741Z,31.69
2022-08-25T16:31:13.031Z,31.66
2022-08-25T16:36:13.219Z,31.49
2022-08-25T16:38:41.823Z,31.29
2022-08-25T16:41:22.254Z,31.38
2022-08-25T16:43:49.584Z,31.64
2022-08-25T16:46:19.583Z,31.51
2022-08-25T16:48:47.229Z,31.34
2022-08-25T16:51:22.461Z,31.14
2022-08-25T16:53:52.198Z,31.12
2022-08-25T16:56:18.829Z,30.86
2022-08-25T16:58:45.803Z,31.03
2022-08-25T17:01:12.856Z,31.01
2022-08-25T17:03:43.883Z,31.20
2022-08-25T17:06:11.219Z,30.99
2022-08-25T17:08:37.911Z,30.85
2022-08-25T17:11:07.708Z,30.81
2022-08-25T17:13:35.313Z,30.94
2022-08-25T17:16:03.162Z,30.56
2022-08-25T17:18:30.445Z,30.52
2022-08-25T17:21:04.301Z,30.25
2022-08-25T17:23:33.506Z,30.00
2022-08-25T17:26:02.177Z,30.17
2022-08-25T17:28:29.562Z,30.18
2022-08-25T17:30:56.482Z,30.07
2022-08-25T17:33:24.137Z,30.08
2022-08-25T17:35:53.563Z,30.31
2022-08-25T17:38:23.987Z,30.68
2022-08-25T17:40:52.884Z,31.00
2022-08-25T17:43:23.821Z,31.12
2022-08-25T17:45:52.159Z,30.49
2022-08-25T17:48:19.887Z,30.44
2022-08-25T17:50:46.865Z,29.99
2022-08-25T17:53:14.336Z,29.66
2022-08-25T17:55:47.640Z,30.10
2022-08-25T17:58:16.851Z,29.74
2022-08-25T18:00:44.247Z,29.87
2022-08-25T18:03:11.207Z,30.13
2022-08-25T18:05:38.707Z,30.41
2022-08-25T18:08:10.683Z,30.25
2022-08-25T18:10:38.388Z,30.12
2022-08-25T18:13:05.092Z,29.87
2022-08-25T18:15:32.464Z,29.33
2022-08-25T18:17:59.619Z,29.07
2022-08-25T18:20:30.841Z,29.31
2022-08-25T18:22:57.706Z,29.60
2022-08-25T18:25:26.760Z,29.18
2022-08-25T18:27:55.222Z,29.45
2022-08-25T18:30:22.548Z,29.27
2022-08-25T18:32:53.007Z,29.03
2022-08-25T18:35:21.723Z,29.00
2022-08-25T18:37:50.900Z,29.09
2022-08-25T18:40:17.793Z,28.99
2022-08-25T18:42:44.705Z,28.84
2022-08-25T18:45:12.485Z,28.58
2022-08-25T18:47:39.350Z,28.46
2022-08-25T18:50:06.736Z,26.81
2022-08-25T18:52:34.731Z,27.68
2022-08-25T18:55:01.670Z,27.76
2022-08-25T18:57:28.852Z,27.74
2022-08-25T18:59:55.627Z,27.28
2022-08-25T19:02:22.488Z,27.37
2022-08-25T19:04:49.993Z,26.94
2022-08-25T19:07:16.830Z,26.30
2022-08-25T19:09:43.614Z,26.41
2022-08-25T19:12:11.637Z,26.28
2022-08-25T19:14:49.171Z,26.43
2022-08-25T19:17:15.809Z,26.21
2022-08-25T19:19:42.579Z,26.12
2022-08-25T19:22:38.023Z,26.21
2022-08-25T19:24:57.751Z,26.26
2022-08-25T19:27:25.403Z,26.22
2022-08-25T19:29:52.896Z,26.03
2022-08-25T19:32:20.152Z,26.08
2022-08-25T19:34:51.312Z,26.19
2022-08-25T19:37:18.672Z,26.10
2022-08-25T19:39:52.904Z,26.04
2022-08-25T19:42:37.816Z,25.95
2022-08-25T19:45:11.370Z,25.92
2022-08-25T19:47:38.864Z,25.86
2022-08-25T19:50:07.639Z,25.99
2022-08-25T19:52:34.505Z,25.81
2022-08-25T19:55:01.124Z,25.73
2022-08-25T19:57:42.185Z,25.88
2022-08-25T20:00:17.753Z,25.75
2022-08-25T20:02:44.982Z,25.73
2022-08-25T20:05:12.923Z,25.69
2022-08-25T20:07:39.958Z,25.88
2022-08-25T20:10:14.137Z,25.87
2022-08-25T20:12:42.560Z,25.95
2022-08-25T20:15:11.526Z,26.15
2022-08-25T20:17:38.306Z,26.31
2022-08-25T20:20:11.517Z,26.44
2022-08-25T20:22:38.676Z,26.43
2022-08-25T20:25:13.089Z,26.91
2022-08-25T20:27:50.432Z,27.24
2022-08-25T20:30:24.631Z,27.90
2022-08-25T20:32:53.342Z,28.04
2022-08-25T20:35:21.521Z,27.97
2022-08-25T20:37:55.385Z,27.96
2022-08-25T20:40:25.765Z,28.02
2022-08-25T20:42:54.428Z,27.66
2022-08-25T20:45:22.746Z,27.45
2022-08-25T20:47:51.624Z,27.56
2022-08-25T20:50:19.410Z,27.18
2022-08-25T20:52:46.058Z,26.74
2022-08-25T20:55:15.187Z,26.57
2022-08-25T20:57:45.598Z,26.30
2022-08-25T21:00:13.210Z,26.16
2022-08-25T21:02:40.093Z,25.84
2022-08-25T21:05:07.901Z,25.58
2022-08-25T21:07:36.060Z,25.42
2022-08-25T21:10:06.549Z,26.21
2022-08-25T21:12:38.139Z,26.08
2022-08-25T21:15:05.281Z,26.08
2022-08-25T21:17:33.799Z,25.93
2022-08-25T21:20:00.478Z,25.59
2022-08-25T21:22:27.760Z,25.74
2022-08-25T21:24:55.117Z,25.84
2022-08-25T21:27:24.020Z,25.84
2022-08-25T21:29:54.899Z,25.90
2022-08-25T21:32:23.251Z,26.80
2022-08-25T21:34:54.620Z,26.00
2022-08-25T21:37:21.387Z,26.53
2022-08-25T21:39:48.673Z,25.77
2022-08-25T21:42:15.355Z,26.04
2022-08-25T21:44:42.008Z,26.77
2022-08-25T21:47:09.230Z,25.66
2022-08-25T21:49:37.617Z,25.60
2022-08-25T21:52:05.357Z,25.22
2022-08-25T21:54:32.559Z,25.29
2022-08-25T21:57:02.096Z,25.29
2022-08-25T21:59:35.276Z,25.04
2022-08-25T22:02:05.661Z,24.86
2022-08-25T22:04:33.832Z,24.85
2022-08-25T22:07:01.238Z,25.41
2022-08-25T22:09:29.519Z,25.63
2022-08-25T22:11:59.248Z,25.73
2022-08-25T22:14:27.502Z,25.22
2022-08-25T22:16:55.680Z,25.16
2022-08-25T22:19:23.716Z,25.13
2022-08-25T22:21:52.976Z,25.05
2022-08-25T22:24:22.966Z,25.32
2022-08-25T22:26:55.560Z,24.91
2022-08-25T22:29:25.441Z,24.98
2022-08-25T22:32:00.007Z,25.12
2022-08-25T22:34:32.949Z,25.23
2022-08-25T22:37:04.843Z,25.30
2022-08-25T22:39:34.314Z,25.10
2022-08-25T22:42:02.371Z,24.97
2022-08-25T22:44:29.038Z,25.05
2022-08-25T22:46:55.681Z,25.00
2022-08-25T22:49:22.888Z,24.99
2022-08-25T22:51:49.511Z,24.94
2022-08-25T22:54:16.138Z,25.16
2022-08-25T22:56:43.417Z,24.98
2022-08-25T22:59:13.469Z,24.76
2022-08-25T23:01:42.642Z,25.15
2022-08-25T23:04:10.755Z,25.75
2022-08-25T23:06:38.214Z,26.03
2022-08-25T23:09:07.466Z,25.96
2022-08-25T23:11:34.855Z,25.46
2022-08-25T23:14:01.698Z,24.79
2022-08-25T23:16:28.788Z,24.58
2022-08-25T23:18:55.500Z,24.69
2022-08-25T23:21:24.262Z,25.69
2022-08-25T23:23:52.024Z,25.00
2022-08-25T23:26:19.320Z,25.56
2022-08-25T23:28:50.723Z,25.81
2022-08-25T23:31:17.780Z,26.31
2022-08-25T23:33:45.235Z,26.31
2022-08-25T23:36:14.873Z,26.10
2022-08-25T23:38:44.631Z,26.48
2022-08-25T23:41:21.500Z,26.50
2022-08-25T23:43:50.595Z,26.58
2022-08-25T23:46:20.415Z,25.91
2022-08-25T23:48:48.474Z,25.64
2022-08-25T23:51:27.219Z,25.92
2022-08-25T23:53:54.769Z,25.79
2022-08-25T23:56:23.224Z,25.23
2022-08-25T23:58:51.299Z,24.18
